Time;durP1;ratioP1;P1;durP2;ratioP2;P2;SDS_P1;SDS_P2;PMS_P1;PMS_P2;Temp;Humidity;BMP_temperature;BMP_pressure;BME280_temperature;BME280_humidity;BME280_pressure;Samples;Min_cycle;Max_cycle;Signal;HPM_P1;HPM_P2
2022/09/20 00:04:45;;;;;;;0.30;0.30;;;;;;;14.46;60.61;100425.66;18432384;32;20096;-56
2022/09/20 00:14:49;;;;;;;0.28;0.28;;;;;;;14.28;60.79;100432.97;18434222;32;20434;-57
2022/09/20 00:24:52;;;;;;;0.30;0.30;;;;;;;14.36;60.42;100424.94;18432749;32;20088;-56
2022/09/20 00:45:20;;;;;;;0.50;0.50;;;;;;;14.34;59.52;100418.84;18431261;32;20353;-56
2022/09/20 00:55:26;;;;;;;0.30;0.30;;;;;;;14.28;59.47;100411.97;18431358;32;20405;-55
2022/09/20 01:05:30;;;;;;;0.40;0.40;;;;;;;13.90;60.53;100420.50;18430709;32;20119;-56
2022/09/20 01:15:35;;;;;;;0.35;0.35;;;;;;;13.87;59.96;100409.13;18430353;32;20093;-56
2022/09/20 01:26:23;;;;;;;0.85;0.50;;;;;;;14.22;59.83;100412.06;18430150;32;20142;-56
2022/09/20 01:36:33;;;;;;;0.35;0.35;;;;;;;14.00;60.43;100417.69;18102816;32;20147;-56
2022/09/20 01:46:37;;;;;;;0.40;0.40;;;;;;;13.37;62.53;100426.44;18103780;32;20753;-56
2022/09/20 01:57:07;;;;;;;0.45;0.45;;;;;;;13.37;62.41;100443.03;18110567;32;20118;-56
2022/09/20 02:07:35;;;;;;;0.30;0.30;;;;;;;12.61;65.05;100442.19;18214045;32;20092;-56
2022/09/20 02:17:49;;;;;;;0.30;0.30;;;;;;;13.40;62.63;100436.87;18436044;32;20108;-56
2022/09/20 02:28:08;;;;;;;0.40;0.40;;;;;;;13.33;63.06;100446.59;18435971;32;20089;-57
2022/09/20 02:38:22;;;;;;;0.30;0.30;;;;;;;13.26;63.60;100455.41;18435443;32;20396;-56
2022/09/20 02:48:31;;;;;;;0.40;0.40;;;;;;;13.57;62.98;100462.94;18435294;32;20116;-56
2022/09/20 02:58:42;;;;;;;0.40;0.40;;;;;;;13.57;62.78;100452.44;18435793;32;20107;-56
2022/09/20 03:08:54;;;;;;;0.30;0.30;;;;;;;13.82;61.97;100465.19;18434471;32;20146;-56
2022/09/20 03:19:05;;;;;;;0.50;0.50;;;;;;;13.69;61.54;100470.63;18434236;32;20119;-56
2022/09/20 03:29:18;;;;;;;0.50;0.50;;;;;;;13.69;61.60;100486.38;18434546;32;20150;-56
2022/09/20 03:39:47;;;;;;;0.45;0.45;;;;;;;13.93;60.63;100494.75;18433807;32;20154;-56
2022/09/20 03:50:05;;;;;;;0.30;0.30;;;;;;;13.55;62.31;100483.03;18421167;32;20105;-56
2022/09/20 04:00:24;;;;;;;0.40;0.40;;;;;;;13.59;63.04;100479.50;18433732;32;20116;-56
2022/09/20 04:10:36;;;;;;;0.45;0.45;;;;;;;13.90;61.30;100480.84;18432124;32;20097;-56
2022/09/20 04:20:45;;;;;;;0.73;0.50;;;;;;;13.79;61.52;100483.63;18432942;32;20449;-56
2022/09/20 04:30:52;;;;;;;0.40;0.40;;;;;;;13.70;61.13;100477.59;18432445;32;20088;-56
2022/09/20 04:41:28;;;;;;;0.40;0.40;;;;;;;13.53;61.77;100482.19;18432965;32;20093;-56
2022/09/20 04:52:03;;;;;;;0.40;0.40;;;;;;;12.95;63.70;100479.38;18270220;32;20996;-56
2022/09/20 05:02:50;;;;;;;0.50;0.50;;;;;;;13.28;62.74;100485.13;18292014;32;20144;-56
2022/09/20 05:13:12;;;;;;;0.30;0.30;;;;;;;13.09;63.61;100487.97;18098550;32;20125;-57
2022/09/20 05:23:57;;;;;;;0.50;0.50;;;;;;;13.32;62.49;100492.06;18179625;32;20144;-56
2022/09/20 05:34:07;;;;;;;0.30;0.30;;;;;;;13.59;63.03;100505.75;18292575;32;20127;-56
2022/09/20 05:44:24;;;;;;;0.22;0.22;;;;;;;15.18;58.38;100496.19;18480236;32;20463;-56
2022/09/20 05:54:57;;;;;;;0.20;0.20;;;;;;;16.53;54.45;100502.00;18492105;32;20097;-56
2022/09/20 06:05:07;;;;;;;0.30;0.30;;;;;;;16.34;54.01;100498.03;18488911;32;20084;-56
2022/09/20 06:15:20;;;;;;;0.62;0.62;;;;;;;15.63;55.85;100503.12;18491785;32;20076;-57
2022/09/20 06:25:28;;;;;;;0.30;0.30;;;;;;;16.66;52.78;100507.81;18461468;32;20089;-56
2022/09/20 06:35:36;;;;;;;0.30;0.30;;;;;;;17.98;48.35;100512.03;18430762;32;20089;-56
2022/09/20 06:45:41;;;;;;;0.25;0.25;;;;;;;16.07;50.16;100515.37;18435143;32;20133;-56
2022/09/20 06:55:45;;;;;;;0.20;0.20;;;;;;;18.23;46.89;100516.56;18446083;32;20097;-56
2022/09/20 07:05:50;;;;;;;0.20;0.20;;;;;;;19.30;43.88;100518.22;18432838;32;20385;-56
2022/09/20 07:16:00;;;;;;;0.10;0.10;;;;;;;20.57;40.87;100517.69;18434180;32;20414;-56
2022/09/20 07:26:05;;;;;;;0.20;0.20;;;;;;;18.52;44.20;100535.91;18419751;32;20088;-56
2022/09/20 07:36:09;;;;;;;0.20;0.20;;;;;;;18.11;46.02;100553.00;18419507;32;20096;-56
2022/09/20 07:46:13;;;;;;;0.20;0.20;;;;;;;18.68;46.04;100571.44;18433759;32;20093;-57
2022/09/20 07:56:17;;;;;;;0.20;0.20;;;;;;;18.72;45.30;100565.16;18433286;32;20097;-56
2022/09/20 08:06:22;;;;;;;0.20;0.20;;;;;;;18.52;46.86;100578.19;18432831;32;20184;-56
2022/09/20 08:16:26;;;;;;;0.20;0.20;;;;;;;18.79;44.80;100594.91;18432438;32;20089;-56
2022/09/20 08:26:31;;;;;;;0.35;0.30;;;;;;;19.04;45.46;100598.53;18432425;32;20438;-56
2022/09/20 08:36:36;;;;;;;0.20;0.20;;;;;;;18.58;45.57;100605.28;18432837;32;20429;-56
2022/09/20 08:46:43;;;;;;;0.30;0.30;;;;;;;18.42;44.94;100602.28;18431985;32;20103;-57
2022/09/20 08:56:49;;;;;;;0.30;0.30;;;;;;;17.80;47.88;100605.88;18432273;32;20110;-56
2022/09/20 09:06:54;;;;;;;0.57;0.40;;;;;;;17.77;47.95;100612.12;18432014;32;20092;-56
2022/09/20 09:16:57;;;;;;;0.30;0.30;;;;;;;18.20;46.51;100606.47;18417276;32;20101;-57
2022/09/20 09:27:15;;;;;;;0.30;0.30;;;;;;;18.20;47.04;100601.19;18430270;32;20101;-57
2022/09/20 09:37:27;;;;;;;0.90;0.88;;;;;;;18.42;47.60;100590.81;18429371;32;20093;-56
2022/09/20 09:47:37;;;;;;;0.30;0.30;;;;;;;18.33;47.20;100592.00;18430235;32;20567;-56
2022/09/20 09:57:44;;;;;;;0.40;0.40;;;;;;;18.12;47.41;100589.13;18429414;32;20117;-56
2022/09/20 10:07:54;;;;;;;0.30;0.30;;;;;;;18.42;45.58;100585.53;18430305;32;20097;-56
2022/09/20 10:18:16;;;;;;;0.20;0.20;;;;;;;18.55;45.40;100580.72;18436738;32;20474;-56
2022/09/20 10:28:35;;;;;;;0.10;0.10;;;;;;;18.82;46.02;100572.78;18436826;32;20107;-56
2022/09/20 10:38:44;;;;;;;0.10;0.10;;;;;;;19.76;42.85;100559.78;18435552;32;20136;-56
2022/09/20 10:48:54;;;;;;;0.10;0.10;;;;;;;20.29;42.79;100558.59;18435091;32;20088;-57
2022/09/20 10:59:36;;;;;;;0.10;0.10;;;;;;;20.56;40.62;100545.16;18434816;32;20119;-56
2022/09/20 11:09:43;;;;;;;0.17;0.17;;;;;;;20.76;40.39;100531.06;18431482;32;20438;-56
2022/09/20 11:19:54;;;;;;;0.20;0.20;;;;;;;20.29;41.61;100534.75;18434279;32;20164;-56
2022/09/20 11:30:03;;;;;;;0.20;0.20;;;;;;;19.91;40.74;100538.00;18420001;32;20097;-56
2022/09/20 11:40:18;;;;;;;0.17;0.17;;;;;;;20.11;40.84;100523.12;18433896;32;20394;-56
2022/09/20 11:51:00;;;;;;;0.10;0.10;;;;;;;20.10;40.53;100519.59;18433492;32;20362;-56
2022/09/20 12:01:12;;;;;;;0.20;0.20;;;;;;;19.63;43.54;100517.00;18094096;32;20117;-56
2022/09/20 12:11:16;;;;;;;0.10;0.10;;;;;;;20.10;41.41;100508.16;18107129;32;20226;-57
2022/09/20 12:21:21;;;;;;;0.10;0.10;;;;;;;20.34;41.02;100508.94;18116204;32;20123;-56
2022/09/20 12:31:46;;;;;;;0.45;0.40;;;;;;;19.70;43.19;100510.56;18185903;32;20097;-56
2022/09/20 12:41:53;;;;;;;0.10;0.10;;;;;;;19.95;43.11;100502.53;18417797;32;20101;-56
2022/09/20 13:02:43;;;;;;;0.10;0.10;;;;;;;20.56;39.42;100488.63;18431469;32;20424;-56
2022/09/20 13:12:47;;;;;;;0.10;0.10;;;;;;;20.47;42.11;100488.06;18430625;32;20093;-55
2022/09/20 13:22:58;;;;;;;0.10;0.10;;;;;;;20.28;41.49;100489.78;18430384;32;20089;-56
2022/09/20 13:33:17;;;;;;;0.10;0.10;;;;;;;19.80;42.39;100498.66;18430591;32;20106;-56
2022/09/20 13:43:28;;;;;;;0.20;0.20;;;;;;;19.96;42.48;100506.91;18430942;32;20335;-56
2022/09/20 13:53:31;;;;;;;0.10;0.10;;;;;;;19.40;43.76;100501.09;18436848;32;20567;-57
2022/09/20 14:03:50;;;;;;;0.10;0.10;;;;;;;19.32;44.69;100494.34;18448642;32;20192;-56
2022/09/20 14:13:55;;;;;;;0.10;0.10;;;;;;;19.79;41.20;100504.91;18437266;32;20111;-56
2022/09/20 14:24:01;;;;;;;0.20;0.20;;;;;;;20.36;40.37;100511.53;18436331;32;20147;-57
2022/09/20 14:34:05;;;;;;;0.20;0.20;;;;;;;20.41;37.63;100514.84;18433383;32;20109;-57
2022/09/20 14:44:24;;;;;;;0.10;0.10;;;;;;;20.05;39.85;100518.94;18436107;32;20097;-56
2022/09/20 14:54:29;;;;;;;0.20;0.20;;;;;;;19.31;41.55;100517.31;18473761;32;20136;-57
2022/09/20 15:04:36;;;;;;;0.20;0.20;;;;;;;17.96;44.89;100527.06;18455813;32;20360;-57
2022/09/20 15:14:40;;;;;;;0.20;0.20;;;;;;;18.23;44.54;100535.91;18493231;32;20092;-56
2022/09/20 15:24:44;;;;;;;0.30;0.30;;;;;;;18.26;46.07;100553.47;18494693;32;20069;-56
2022/09/20 15:34:47;;;;;;;0.20;0.20;;;;;;;17.98;47.28;100560.44;18495247;32;20157;-57
2022/09/20 15:44:52;;;;;;;0.20;0.20;;;;;;;17.66;47.29;100561.41;18493682;32;20073;-57
2022/09/20 15:54:58;;;;;;;0.20;0.20;;;;;;;16.53;49.70;100579.25;18493847;32;20373;-57
2022/09/20 16:05:11;;;;;;;0.20;0.20;;;;;;;17.08;48.49;100573.53;18485575;32;235669;-56
2022/09/20 16:15:17;;;;;;;0.22;0.22;;;;;;;17.08;48.87;100578.81;18497185;32;20652;-56
2022/09/20 16:25:21;;;;;;;0.30;0.30;;;;;;;16.88;50.76;100589.84;18496480;32;20093;-56
2022/09/20 16:35:24;;;;;;;0.20;0.20;;;;;;;16.82;51.46;100603.19;18497652;32;20097;-56
2022/09/20 16:45:31;;;;;;;0.30;0.30;;;;;;;16.89;50.96;100596.87;18496324;32;20147;-56
2022/09/20 16:55:35;;;;;;;0.30;0.30;;;;;;;16.99;49.35;100597.47;18496165;32;20088;-57
2022/09/20 17:05:41;;;;;;;0.30;0.30;;;;;;;16.40;52.15;100607.66;18495136;32;20097;-57
2022/09/20 17:15:44;;;;;;;1.48;0.70;;;;;;;16.33;51.90;100600.84;18481072;32;20107;-57
2022/09/20 17:25:51;;;;;;;0.30;0.30;;;;;;;16.02;52.39;100612.03;18480209;32;20101;-57
2022/09/20 17:35:54;;;;;;;0.30;0.30;;;;;;;15.59;54.34;100621.62;18494361;32;20096;-56
2022/09/20 17:46:11;;;;;;;0.30;0.30;;;;;;;15.36;54.44;100633.47;18457556;32;20112;-57
2022/09/20 17:56:14;;;;;;;0.35;0.35;;;;;;;15.12;54.25;100644.41;18434990;32;20115;-57
2022/09/20 18:06:20;;;;;;;0.50;0.50;;;;;;;14.37;56.83;100651.66;18427443;32;20115;-57
2022/09/20 18:16:23;;;;;;;0.40;0.40;;;;;;;14.50;56.72;100661.09;18426317;32;20099;-57
2022/09/20 18:26:31;;;;;;;0.40;0.40;;;;;;;13.92;58.72;100665.38;18433178;32;20093;-56
2022/09/20 18:36:37;;;;;;;0.40;0.40;;;;;;;13.25;59.83;100679.12;18478340;32;20638;-56
2022/09/20 18:46:41;;;;;;;0.40;0.40;;;;;;;13.61;58.48;100690.19;18495795;32;20479;-56
2022/09/20 18:56:46;;;;;;;0.40;0.40;;;;;;;13.42;58.93;100690.34;18484472;32;20111;-56
2022/09/20 19:06:55;;;;;;;0.32;0.32;;;;;;;13.29;59.70;100699.22;18483676;32;20115;-56
2022/09/20 19:17:01;;;;;;;0.40;0.40;;;;;;;13.29;59.86;100701.84;18498234;32;20089;-56
2022/09/20 19:27:08;;;;;;;0.35;0.35;;;;;;;12.55;62.38;100701.47;18497031;32;20141;-57
2022/09/20 19:37:17;;;;;;;0.40;0.40;;;;;;;13.17;60.07;100687.06;18465740;32;20092;-56
2022/09/20 19:47:29;;;;;;;0.40;0.40;;;;;;;12.97;60.00;100701.19;18431611;32;20702;-56
2022/09/20 19:57:36;;;;;;;0.40;0.40;;;;;;;13.11;60.21;100702.84;18432376;32;20093;-56
2022/09/20 20:07:45;;;;;;;0.43;0.43;;;;;;;12.89;60.66;100709.09;18432144;32;20109;-56
2022/09/20 20:17:55;;;;;;;0.40;0.40;;;;;;;13.30;58.80;100730.62;18430056;32;20369;-56
2022/09/20 20:27:59;;;;;;;0.40;0.40;;;;;;;13.45;58.12;100734.91;18466698;32;20443;-56
2022/09/20 20:38:11;;;;;;;0.30;0.30;;;;;;;13.54;57.99;100748.81;18495047;32;20097;-57
2022/09/20 20:48:15;;;;;;;0.50;0.50;;;;;;;13.64;57.89;100750.47;18495407;32;20099;-56
2022/09/20 20:58:18;;;;;;;0.40;0.40;;;;;;;13.69;57.64;100760.94;18494922;32;20396;-56
2022/09/20 21:08:23;;;;;;;0.40;0.40;;;;;;;13.60;58.09;100759.28;18494533;32;20097;-56
2022/09/20 21:18:26;;;;;;;0.50;0.50;;;;;;;12.97;59.25;100778.94;18494477;32;20107;-56
2022/09/20 21:28:30;;;;;;;0.35;0.35;;;;;;;12.51;59.89;100780.91;18491081;32;20104;-57
2022/09/20 21:38:34;;;;;;;0.30;0.30;;;;;;;11.62;62.75;100801.12;18494191;32;20100;-57
2022/09/20 21:48:39;;;;;;;0.40;0.40;;;;;;;11.84;62.30;100811.56;18493354;32;20097;-57
2022/09/20 21:58:42;;;;;;;0.50;0.50;;;;;;;11.58;63.48;100805.47;18492883;32;20458;-57
2022/09/20 22:08:48;;;;;;;0.40;0.40;;;;;;;11.68;63.08;100813.31;18484566;32;20437;-57
2022/09/20 22:18:52;;;;;;;0.57;0.57;;;;;;;11.37;64.21;100819.41;18494734;32;20137;-57
2022/09/20 22:28:57;;;;;;;0.50;0.50;;;;;;;11.32;63.41;100821.16;18500501;32;20092;-57
2022/09/20 22:39:00;;;;;;;0.88;0.88;;;;;;;11.11;63.85;100830.69;18481518;32;20133;-57
2022/09/20 22:49:06;;;;;;;0.40;0.40;;;;;;;11.07;64.60;100836.78;18435270;32;20154;-57
2022/09/20 22:59:11;;;;;;;0.40;0.40;;;;;;;11.11;64.91;100830.69;18434811;32;20357;-57
2022/09/20 23:09:17;;;;;;;0.40;0.40;;;;;;;11.25;65.38;100835.97;18434591;32;20097;-57
2022/09/20 23:19:20;;;;;;;0.50;0.50;;;;;;;11.35;65.32;100831.59;18434323;32;20077;-57
2022/09/20 23:29:25;;;;;;;0.50;0.50;;;;;;;11.47;65.35;100830.75;18434208;32;20112;-57
2022/09/20 23:39:28;;;;;;;0.82;0.60;;;;;;;11.54;65.08;100834.25;18434091;32;20089;-57
2022/09/20 23:49:33;;;;;;;0.52;0.52;;;;;;;11.38;66.05;100827.25;18433239;32;20162;-57
2022/09/20 23:59:36;;;;;;;0.40;0.40;;;;;;;11.40;65.77;100836.84;18433538;32;20093;-57
